Аэропорт: Кызылорда. Кызылорда

ICAO: UAOO

METAR:
2021-07-28 12:30:00
UAOO 281230Z 30006MPS CAVOK 34/01 Q1004 R05/CLRD70 NOSIG RMK QFE741/0989
METAR:
2021-07-28 11:00:00
TAF UAOO 281100Z 2812/2821 36005MPS CAVOK